sensor_id;sensor_type;location;lat;lon;timestamp;pressure;altitude;pressure_sealevel;temperature;humidity
54808;BME280;40708;50.364;7.550;2023-02-19T00:02:14;100891.53;;;10.23;100.00
54808;BME280;40708;50.364;7.550;2023-02-19T00:04:39;100887.13;;;10.24;100.00
54808;BME280;40708;50.364;7.550;2023-02-19T00:07:05;100879.16;;;10.25;100.00
54808;BME280;40708;50.364;7.550;2023-02-19T00:09:30;100865.94;;;10.28;100.00
54808;BME280;40708;50.364;7.550;2023-02-19T00:11:55;100862.41;;;10.28;100.00
54808;BME280;40708;50.364;7.550;2023-02-19T00:14:20;100859.78;;;10.29;100.00
54808;BME280;40708;50.364;7.550;2023-02-19T00:16:46;100858.75;;;10.15;100.00
54808;BME280;40708;50.364;7.550;2023-02-19T00:19:14;100865.72;;;10.05;100.00
54808;BME280;40708;50.364;7.550;2023-02-19T00:21:40;100868.38;;;10.08;100.00
54808;BME280;40708;50.364;7.550;2023-02-19T00:24:06;100879.81;;;10.01;100.00
54808;BME280;40708;50.364;7.550;2023-02-19T00:26:33;100877.16;;;10.00;100.00
54808;BME280;40708;50.364;7.550;2023-02-19T00:28:59;100888.69;;;10.05;100.00
54808;BME280;40708;50.364;7.550;2023-02-19T00:31:30;100894.00;;;10.05;100.00
54808;BME280;40708;50.364;7.550;2023-02-19T00:33:58;100889.53;;;10.01;100.00
54808;BME280;40708;50.364;7.550;2023-02-19T00:36:25;100889.50;;;9.98;100.00
54808;BME280;40708;50.364;7.550;2023-02-19T00:38:51;100903.56;;;9.91;100.00
54808;BME280;40708;50.364;7.550;2023-02-19T00:41:18;100896.41;;;9.84;100.00
54808;BME280;40708;50.364;7.550;2023-02-19T00:46:14;100904.34;;;9.82;100.00
54808;BME280;40708;50.364;7.550;2023-02-19T00:48:40;100903.47;;;9.80;100.00
54808;BME280;40708;50.364;7.550;2023-02-19T00:51:05;100907.88;;;9.80;100.00
54808;BME280;40708;50.364;7.550;2023-02-19T00:53:31;100910.50;;;9.80;100.00
54808;BME280;40708;50.364;7.550;2023-02-19T00:55:56;100899.09;;;9.85;100.00
54808;BME280;40708;50.364;7.550;2023-02-19T00:58:21;100907.00;;;9.84;100.00
54808;BME280;40708;50.364;7.550;2023-02-19T01:00:46;100900.84;;;9.83;100.00
54808;BME280;40708;50.364;7.550;2023-02-19T01:03:12;100900.00;;;9.86;100.00
54808;BME280;40708;50.364;7.550;2023-02-19T01:05:37;100899.09;;;9.85;100.00
54808;BME280;40708;50.364;7.550;2023-02-19T01:08:02;100893.78;;;9.87;100.00
54808;BME280;40708;50.364;7.550;2023-02-19T01:10:28;100892.06;;;9.89;100.00
54808;BME280;40708;50.364;7.550;2023-02-19T01:12:53;100896.50;;;9.91;100.00
54808;BME280;40708;50.364;7.550;2023-02-19T01:15:18;100888.56;;;9.91;100.00
54808;BME280;40708;50.364;7.550;2023-02-19T01:17:44;100884.16;;;9.93;100.00
54808;BME280;40708;50.364;7.550;2023-02-19T01:20:09;100877.09;;;9.94;100.00
54808;BME280;40708;50.364;7.550;2023-02-19T01:22:34;100878.88;;;9.96;100.00
54808;BME280;40708;50.364;7.550;2023-02-19T01:24:59;100874.47;;;9.97;100.00
54808;BME280;40708;50.364;7.550;2023-02-19T01:27:25;100873.59;;;9.98;100.00
54808;BME280;40708;50.364;7.550;2023-02-19T01:29:50;100881.56;;;10.01;100.00
54808;BME280;40708;50.364;7.550;2023-02-19T01:32:15;100877.16;;;10.00;100.00
54808;BME280;40708;50.364;7.550;2023-02-19T01:34:41;100879.81;;;10.00;100.00
54808;BME280;40708;50.364;7.550;2023-02-19T01:37:06;100879.78;;;9.97;100.00
54808;BME280;40708;50.364;7.550;2023-02-19T01:39:36;100875.31;;;9.93;100.00
54808;BME280;40708;50.364;7.550;2023-02-19T01:42:01;100859.44;;;9.96;100.00
54808;BME280;40708;50.364;7.550;2023-02-19T01:46:52;100854.16;;;9.99;100.00
54808;BME280;40708;50.364;7.550;2023-02-19T01:49:34;100857.66;;;9.95;100.00
54808;BME280;40708;50.364;7.550;2023-02-19T01:54:36;100845.34;;;10.00;100.00
54808;BME280;40708;50.364;7.550;2023-02-19T01:57:05;100833.81;;;9.96;100.00
54808;BME280;40708;50.364;7.550;2023-02-19T01:59:32;100832.03;;;9.95;100.00
54808;BME280;40708;50.364;7.550;2023-02-19T02:01:59;100846.22;;;9.99;100.00
54808;BME280;40708;50.364;7.550;2023-02-19T02:04:24;100841.78;;;9.96;100.00
54808;BME280;40708;50.364;7.550;2023-02-19T02:06:52;100845.28;;;9.95;100.00
54808;BME280;40708;50.364;7.550;2023-02-19T02:09:20;100845.31;;;9.97;100.00
54808;BME280;40708;50.364;7.550;2023-02-19T02:12:04;100849.69;;;9.95;100.00
54808;BME280;40708;50.364;7.550;2023-02-19T02:14:33;100841.75;;;9.95;100.00
54808;BME280;40708;50.364;7.550;2023-02-19T02:20:05;100841.75;;;9.95;100.00
54808;BME280;40708;50.364;7.550;2023-02-19T02:23:16;100839.06;;;9.89;100.00
54808;BME280;40708;50.364;7.550;2023-02-19T02:26:14;100827.66;;;10.00;100.00
54808;BME280;40708;50.364;7.550;2023-02-19T02:29:10;100825.88;;;9.98;100.00
54808;BME280;40708;50.364;7.550;2023-02-19T02:32:08;100824.97;;;9.96;100.00
54808;BME280;40708;50.364;7.550;2023-02-19T02:34:42;100819.72;;;9.99;100.00
54808;BME280;40708;50.364;7.550;2023-02-19T02:37:09;100817.13;;;10.05;100.00
54808;BME280;40708;50.364;7.550;2023-02-19T02:39:36;100809.16;;;10.06;100.00
54808;BME280;40708;50.364;7.550;2023-02-19T02:42:02;100792.38;;;10.04;100.00
54808;BME280;40708;50.364;7.550;2023-02-19T02:44:46;100789.66;;;9.97;100.00
54808;BME280;40708;50.364;7.550;2023-02-19T02:47:36;100796.72;;;9.96;100.00
54808;BME280;40708;50.364;7.550;2023-02-19T02:50:14;100807.34;;;10.01;100.00
54808;BME280;40708;50.364;7.550;2023-02-19T02:52:44;100815.28;;;9.96;100.00
54808;BME280;40708;50.364;7.550;2023-02-19T02:55:33;100817.09;;;10.03;100.00
54808;BME280;40708;50.364;7.550;2023-02-19T02:58:01;100821.50;;;10.01;100.00
54808;BME280;40708;50.364;7.550;2023-02-19T03:00:28;100821.53;;;10.04;100.00
54808;BME280;40708;50.364;7.550;2023-02-19T03:03:16;100827.66;;;9.99;100.00
54808;BME280;40708;50.364;7.550;2023-02-19T03:05:44;100828.56;;;9.99;100.00
54808;BME280;40708;50.364;7.550;2023-02-19T03:08:26;100828.56;;;9.99;100.00
54808;BME280;40708;50.364;7.550;2023-02-19T03:11:06;100831.19;;;9.96;100.00
54808;BME280;40708;50.364;7.550;2023-02-19T03:13:56;100841.75;;;9.93;100.00
54808;BME280;40708;50.364;7.550;2023-02-19T03:16:43;100841.78;;;9.98;100.00
54808;BME280;40708;50.364;7.550;2023-02-19T03:19:34;100840.91;;;9.99;100.00
54808;BME280;40708;50.364;7.550;2023-02-19T03:22:09;100842.69;;;10.01;100.00
54808;BME280;40708;50.364;7.550;2023-02-19T03:24:41;100833.81;;;9.96;100.00
54808;BME280;40708;50.364;7.550;2023-02-19T03:27:27;100839.19;;;10.02;100.00
54808;BME280;40708;50.364;7.550;2023-02-19T03:29:56;100831.28;;;10.07;100.00
54808;BME280;40708;50.364;7.550;2023-02-19T03:32:30;100818.00;;;10.07;100.00
54808;BME280;40708;50.364;7.550;2023-02-19T03:35:05;100819.78;;;10.09;100.00
54808;BME280;40708;50.364;7.550;2023-02-19T03:37:43;100818.00;;;10.07;100.00
54808;BME280;40708;50.364;7.550;2023-02-19T03:40:10;100826.84;;;10.09;100.00
54808;BME280;40708;50.364;7.550;2023-02-19T03:42:55;100822.41;;;10.02;100.00
54808;BME280;40708;50.364;7.550;2023-02-19T03:45:47;100814.41;;;10.00;100.00
54808;BME280;40708;50.364;7.550;2023-02-19T03:50:49;100829.47;;;10.04;100.00
54808;BME280;40708;50.364;7.550;2023-02-19T03:56:09;100829.44;;;10.01;100.00
54808;BME280;40708;50.364;7.550;2023-02-19T04:01:16;100833.06;;;10.08;100.00
54808;BME280;40708;50.364;7.550;2023-02-19T04:04:01;100838.28;;;10.02;100.00
54808;BME280;40708;50.364;7.550;2023-02-19T04:06:30;100838.28;;;10.02;100.00
54808;BME280;40708;50.364;7.550;2023-02-19T04:09:03;100835.69;;;10.06;100.00
54808;BME280;40708;50.364;7.550;2023-02-19T04:11:31;100841.00;;;10.08;100.00
54808;BME280;40708;50.364;7.550;2023-02-19T04:16:29;100847.19;;;10.10;100.00
54808;BME280;40708;50.364;7.550;2023-02-19T04:18:58;100847.28;;;10.13;100.00
54808;BME280;40708;50.364;7.550;2023-02-19T04:21:29;100848.97;;;10.11;100.00
54808;BME280;40708;50.364;7.550;2023-02-19T04:23:58;100848.16;;;10.16;100.00
54808;BME280;40708;50.364;7.550;2023-02-19T04:26:27;100854.25;;;10.11;100.00
54808;BME280;40708;50.364;7.550;2023-02-19T04:28:53;100853.41;;;10.12;100.00
54808;BME280;40708;50.364;7.550;2023-02-19T04:31:18;100856.13;;;10.16;100.00
54808;BME280;40708;50.364;7.550;2023-02-19T04:33:43;100854.34;;;10.17;100.00
54808;BME280;40708;50.364;7.550;2023-02-19T04:36:09;100851.69;;;10.14;100.00
54808;BME280;40708;50.364;7.550;2023-02-19T04:38:35;100862.28;;;10.12;100.00
54808;BME280;40708;50.364;7.550;2023-02-19T04:41:00;100856.13;;;10.15;100.00
54808;BME280;40708;50.364;7.550;2023-02-19T04:43:26;100867.59;;;10.14;100.00
54808;BME280;40708;50.364;7.550;2023-02-19T04:45:51;100871.06;;;10.11;100.00
54808;BME280;40708;50.364;7.550;2023-02-19T04:48:16;100863.22;;;10.22;100.00
54808;BME280;40708;50.364;7.550;2023-02-19T04:50:41;100863.31;;;10.30;100.00
54808;BME280;40708;50.364;7.550;2023-02-19T04:53:07;100854.53;;;10.38;100.00
54808;BME280;40708;50.364;7.550;2023-02-19T04:55:36;100856.34;;;10.42;100.00
54808;BME280;40708;50.364;7.550;2023-02-19T04:58:01;100866.97;;;10.45;100.00
54808;BME280;40708;50.364;7.550;2023-02-19T05:00:27;100861.66;;;10.45;100.00
54808;BME280;40708;50.364;7.550;2023-02-19T05:02:52;100865.19;;;10.43;100.00
54808;BME280;40708;50.364;7.550;2023-02-19T05:05:17;100866.09;;;10.45;100.00
54808;BME280;40708;50.364;7.550;2023-02-19T05:07:43;100869.56;;;10.39;100.00
54808;BME280;40708;50.364;7.550;2023-02-19T05:10:08;100860.78;;;10.43;100.00
54808;BME280;40708;50.364;7.550;2023-02-19T05:12:33;100866.13;;;10.51;100.00
54808;BME280;40708;50.364;7.550;2023-02-19T05:14:58;100856.38;;;10.48;100.00
54808;BME280;40708;50.364;7.550;2023-02-19T05:17:24;100867.88;;;10.52;100.00
54808;BME280;40708;50.364;7.550;2023-02-19T05:19:49;100876.75;;;10.52;100.00
54808;BME280;40708;50.364;7.550;2023-02-19T05:22:14;100878.50;;;10.49;100.00
54808;BME280;40708;50.364;7.550;2023-02-19T05:24:39;100874.94;;;10.47;100.00
54808;BME280;40708;50.364;7.550;2023-02-19T05:27:05;100874.03;;;10.43;100.00
54808;BME280;40708;50.364;7.550;2023-02-19T05:29:30;100876.59;;;10.34;100.00
54808;BME280;40708;50.364;7.550;2023-02-19T05:31:56;100875.66;;;10.26;100.00
54808;BME280;40708;50.364;7.550;2023-02-19T05:34:21;100889.69;;;10.13;100.00
54808;BME280;40708;50.364;7.550;2023-02-19T05:36:46;100894.00;;;10.05;100.00
54808;BME280;40708;50.364;7.550;2023-02-19T05:39:11;100908.91;;;9.95;100.00
54808;BME280;40708;50.364;7.550;2023-02-19T05:41:37;100915.97;;;9.95;100.00
54808;BME280;40708;50.364;7.550;2023-02-19T05:44:03;100920.38;;;9.91;100.00
54808;BME280;40708;50.364;7.550;2023-02-19T05:46:29;100919.53;;;9.97;100.00
54808;BME280;40708;50.364;7.550;2023-02-19T05:48:55;100932.69;;;9.89;100.00
54808;BME280;40708;50.364;7.550;2023-02-19T05:51:22;100928.34;;;9.94;100.00
54808;BME280;40708;50.364;7.550;2023-02-19T05:53:48;100935.38;;;9.91;100.00
54808;BME280;40708;50.364;7.550;2023-02-19T05:58:56;100939.78;;;9.89;100.00
54808;BME280;40708;50.364;7.550;2023-02-19T06:01:24;100953.06;;;9.92;100.00
54808;BME280;40708;50.364;7.550;2023-02-19T06:03:50;100948.59;;;9.88;100.00
54808;BME280;40708;50.364;7.550;2023-02-19T06:06:17;100952.13;;;9.90;100.00
54808;BME280;40708;50.364;7.550;2023-02-19T06:08:42;100962.78;;;9.93;100.00
54808;BME280;40708;50.364;7.550;2023-02-19T06:11:08;100958.38;;;9.93;100.00
54808;BME280;40708;50.364;7.550;2023-02-19T06:13:33;100965.44;;;9.91;100.00
54808;BME280;40708;50.364;7.550;2023-02-19T06:15:59;100956.56;;;9.91;100.00
54808;BME280;40708;50.364;7.550;2023-02-19T06:18:24;100960.97;;;9.89;100.00
54808;BME280;40708;50.364;7.550;2023-02-19T06:20:49;100961.84;;;9.88;100.00
54808;BME280;40708;50.364;7.550;2023-02-19T06:23:14;100964.44;;;9.85;100.00
54808;BME280;40708;50.364;7.550;2023-02-19T06:25:40;100962.75;;;9.90;100.00
54808;BME280;40708;50.364;7.550;2023-02-19T06:28:05;100966.31;;;9.95;100.00
54808;BME280;40708;50.364;7.550;2023-02-19T06:30:31;100964.69;;;10.06;100.00
54808;BME280;40708;50.364;7.550;2023-02-19T06:32:56;100957.72;;;10.12;100.00
54808;BME280;40708;50.364;7.550;2023-02-19T06:35:22;100954.25;;;10.20;100.00
54808;BME280;40708;50.364;7.550;2023-02-19T06:37:48;100950.81;;;10.27;100.00
54808;BME280;40708;50.364;7.550;2023-02-19T06:40:13;100942.91;;;10.34;100.00
54808;BME280;40708;50.364;7.550;2023-02-19T06:42:39;100947.34;;;10.37;100.00
54808;BME280;40708;50.364;7.550;2023-02-19T06:45:04;100943.81;;;10.35;100.00
54808;BME280;40708;50.364;7.550;2023-02-19T06:47:31;100946.50;;;10.39;100.00
54808;BME280;40708;50.364;7.550;2023-02-19T06:49:57;100942.13;;;10.44;100.00
54808;BME280;40708;50.364;7.550;2023-02-19T06:52:22;100948.28;;;10.42;100.00
54808;BME280;40708;50.364;7.550;2023-02-19T06:54:47;100958.03;;;10.44;100.00
54808;BME280;40708;50.364;7.550;2023-02-19T06:57:13;100956.25;;;10.42;100.00
54808;BME280;40708;50.364;7.550;2023-02-19T06:59:38;100971.25;;;10.41;100.00
54808;BME280;40708;50.364;7.550;2023-02-19T07:02:04;100973.88;;;10.37;100.00
54808;BME280;40708;50.364;7.550;2023-02-19T07:04:29;100976.53;;;10.37;100.00
54808;BME280;40708;50.364;7.550;2023-02-19T07:06:54;100980.00;;;10.30;100.00
54808;BME280;40708;50.364;7.550;2023-02-19T07:09:19;100987.94;;;10.28;100.00
54808;BME280;40708;50.364;7.550;2023-02-19T07:11:45;100987.91;;;10.24;100.00
54808;BME280;40708;50.364;7.550;2023-02-19T07:14:14;100995.78;;;10.18;100.00
54808;BME280;40708;50.364;7.550;2023-02-19T07:16:40;100995.00;;;10.26;100.00
54808;BME280;40708;50.364;7.550;2023-02-19T07:19:05;101001.16;;;10.25;100.00
54808;BME280;40708;50.364;7.550;2023-02-19T07:21:31;101010.13;;;10.35;100.00
54808;BME280;40708;50.364;7.550;2023-02-19T07:23:56;101008.28;;;10.31;100.00
54808;BME280;40708;50.364;7.550;2023-02-19T07:26:22;101010.03;;;10.29;100.00
54808;BME280;40708;50.364;7.550;2023-02-19T07:28:49;101022.41;;;10.28;100.00
54808;BME280;40708;50.364;7.550;2023-02-19T07:31:16;101021.63;;;10.35;100.00
54808;BME280;40708;50.364;7.550;2023-02-19T07:33:42;101020.72;;;10.36;100.00
54808;BME280;40708;50.364;7.550;2023-02-19T07:36:09;101027.84;;;10.40;100.00
54808;BME280;40708;50.364;7.550;2023-02-19T07:38:34;101032.34;;;10.46;100.00
54808;BME280;40708;50.364;7.550;2023-02-19T07:41:01;101034.09;;;10.47;100.00
54808;BME280;40708;50.364;7.550;2023-02-19T07:43:29;101036.78;;;10.48;100.00
54808;BME280;40708;50.364;7.550;2023-02-19T07:45:54;101035.03;;;10.49;100.00
54808;BME280;40708;50.364;7.550;2023-02-19T07:48:20;101041.25;;;10.55;100.00
54808;BME280;40708;50.364;7.550;2023-02-19T07:50:56;101037.81;;;10.62;100.00
54808;BME280;40708;50.364;7.550;2023-02-19T07:53:23;101036.03;;;10.63;100.00
54808;BME280;40708;50.364;7.550;2023-02-19T07:55:49;101044.88;;;10.62;100.00
54808;BME280;40708;50.364;7.550;2023-02-19T07:58:15;101046.72;;;10.73;100.00
54808;BME280;40708;50.364;7.550;2023-02-19T08:00:40;101046.75;;;10.76;100.00
54808;BME280;40708;50.364;7.550;2023-02-19T08:03:06;101045.94;;;10.81;100.00
54808;BME280;40708;50.364;7.550;2023-02-19T08:05:33;101052.97;;;10.75;100.00
54808;BME280;40708;50.364;7.550;2023-02-19T08:08:00;101052.91;;;10.68;100.00
54808;BME280;40708;50.364;7.550;2023-02-19T08:10:26;101041.47;;;10.75;100.00
54808;BME280;40708;50.364;7.550;2023-02-19T08:13:12;101053.81;;;10.71;100.00
54808;BME280;40708;50.364;7.550;2023-02-19T08:18:29;101061.72;;;10.67;100.00
54808;BME280;40708;50.364;7.550;2023-02-19T08:20:55;101062.56;;;10.61;100.00
54808;BME280;40708;50.364;7.550;2023-02-19T08:23:21;101067.97;;;10.70;100.00
54808;BME280;40708;50.364;7.550;2023-02-19T08:25:47;101071.56;;;10.75;100.00
54808;BME280;40708;50.364;7.550;2023-02-19T08:28:13;101067.97;;;10.70;100.00
54808;BME280;40708;50.364;7.550;2023-02-19T08:30:40;101074.13;;;10.71;100.00
54808;BME280;40708;50.364;7.550;2023-02-19T08:33:07;101072.53;;;10.87;100.00
54808;BME280;40708;50.364;7.550;2023-02-19T08:35:35;101079.56;;;10.83;100.00
54808;BME280;40708;50.364;7.550;2023-02-19T08:38:04;101067.16;;;10.82;100.00
54808;BME280;40708;50.364;7.550;2023-02-19T08:40:30;101086.78;;;10.95;100.00
54808;BME280;40708;50.364;7.550;2023-02-19T08:43:01;101085.78;;;10.85;100.00
54808;BME280;40708;50.364;7.550;2023-02-19T08:45:27;101077.88;;;10.93;100.00
54808;BME280;40708;50.364;7.550;2023-02-19T08:47:52;101087.59;;;10.89;100.00
54808;BME280;40708;50.364;7.550;2023-02-19T08:50:17;101095.50;;;10.83;100.00
54808;BME280;40708;50.364;7.550;2023-02-19T08:52:42;101082.19;;;10.79;100.00
54808;BME280;40708;50.364;7.550;2023-02-19T08:55:08;101097.28;;;10.86;100.00
54808;BME280;40708;50.364;7.550;2023-02-19T08:57:36;101099.91;;;10.83;100.00
54808;BME280;40708;50.364;7.550;2023-02-19T09:00:03;101114.97;;;10.84;100.00
54808;BME280;40708;50.364;7.550;2023-02-19T09:02:29;101125.53;;;10.79;100.00
54808;BME280;40708;50.364;7.550;2023-02-19T09:04:55;101142.28;;;10.70;100.00
54808;BME280;40708;50.364;7.550;2023-02-19T09:07:20;101155.50;;;10.67;100.00
54808;BME280;40708;50.364;7.550;2023-02-19T09:09:46;101147.47;;;10.61;100.00
54808;BME280;40708;50.364;7.550;2023-02-19T09:12:12;101158.91;;;10.54;100.00
54808;BME280;40708;50.364;7.550;2023-02-19T09:14:37;101150.97;;;10.59;100.00
54808;BME280;40708;50.364;7.550;2023-02-19T09:17:05;101160.63;;;10.52;100.00
54808;BME280;40708;50.364;7.550;2023-02-19T09:19:31;101164.22;;;10.57;100.00
54808;BME280;40708;50.364;7.550;2023-02-19T09:21:56;101158.03;;;10.57;100.00
54808;BME280;40708;50.364;7.550;2023-02-19T09:24:22;101161.59;;;10.59;100.00
54808;BME280;40708;50.364;7.550;2023-02-19T09:26:48;101158.19;;;10.72;100.00
54808;BME280;40708;50.364;7.550;2023-02-19T09:29:14;101150.47;;;10.93;100.00
54808;BME280;40708;50.364;7.550;2023-02-19T09:31:39;101131.94;;;11.01;100.00
54808;BME280;40708;50.364;7.550;2023-02-19T09:34:05;101134.72;;;11.13;100.00
54808;BME280;40708;50.364;7.550;2023-02-19T09:36:30;101132.22;;;11.31;100.00
54808;BME280;40708;50.364;7.550;2023-02-19T09:38:57;101127.91;;;11.44;100.00
54808;BME280;40708;50.364;7.550;2023-02-19T09:41:28;101115.53;;;11.46;100.00
54808;BME280;40708;50.364;7.550;2023-02-19T09:43:57;101111.16;;;11.58;100.00
54808;BME280;40708;50.364;7.550;2023-02-19T09:46:29;101121.88;;;11.67;100.00
54808;BME280;40708;50.364;7.550;2023-02-19T09:49:02;101126.28;;;11.64;100.00
54808;BME280;40708;50.364;7.550;2023-02-19T09:51:30;101121.09;;;11.80;100.00
54808;BME280;40708;50.364;7.550;2023-02-19T09:53:56;101123.78;;;11.82;100.00
54808;BME280;40708;50.364;7.550;2023-02-19T09:56:24;101129.16;;;11.89;100.00
54808;BME280;40708;50.364;7.550;2023-02-19T09:58:53;101141.53;;;11.90;100.00
54808;BME280;40708;50.364;7.550;2023-02-19T10:01:23;101131.84;;;11.99;100.00
54808;BME280;40708;50.364;7.550;2023-02-19T10:03:50;101130.88;;;11.83;100.00
54808;BME280;40708;50.364;7.550;2023-02-19T10:06:19;101137.97;;;11.85;100.00
54808;BME280;40708;50.364;7.550;2023-02-19T10:08:47;101143.41;;;12.05;100.00
54808;BME280;40708;50.364;7.550;2023-02-19T10:11:13;101128.38;;;12.09;100.00
54808;BME280;40708;50.364;7.550;2023-02-19T10:13:45;101150.50;;;12.05;100.00
54808;BME280;40708;50.364;7.550;2023-02-19T10:16:16;101143.38;;;11.99;100.00
54808;BME280;40708;50.364;7.550;2023-02-19T10:18:44;101143.44;;;12.13;100.00
54808;BME280;40708;50.364;7.550;2023-02-19T10:21:21;101147.88;;;12.12;100.00
54808;BME280;40708;50.364;7.550;2023-02-19T10:23:51;101155.06;;;12.31;100.00
54808;BME280;40708;50.364;7.550;2023-02-19T10:26:18;101169.19;;;12.18;100.00
54808;BME280;40708;50.364;7.550;2023-02-19T10:28:43;101171.00;;;12.22;100.00
54808;BME280;40708;50.364;7.550;2023-02-19T10:31:20;101170.94;;;12.18;100.00
54808;BME280;40708;50.364;7.550;2023-02-19T10:33:54;101178.09;;;12.25;100.00
54808;BME280;40708;50.364;7.550;2023-02-19T10:36:32;101187.88;;;12.29;100.00
54808;BME280;40708;50.364;7.550;2023-02-19T10:39:01;101182.50;;;12.18;100.00
54808;BME280;40708;50.364;7.550;2023-02-19T10:41:27;101182.44;;;12.12;100.00
54808;BME280;40708;50.364;7.550;2023-02-19T10:43:56;101188.78;;;12.28;100.00
54808;BME280;40708;50.364;7.550;2023-02-19T10:46:31;101196.75;;;12.29;100.00
54808;BME280;40708;50.364;7.550;2023-02-19T10:48:59;101192.19;;;12.09;100.00
54808;BME280;40708;50.364;7.550;2023-02-19T10:54:15;101192.25;;;12.16;100.00
54808;BME280;40708;50.364;7.550;2023-02-19T10:56:41;101191.31;;;12.08;100.00
54808;BME280;40708;50.364;7.550;2023-02-19T10:59:26;101197.63;;;12.25;100.00
54808;BME280;40708;50.364;7.550;2023-02-19T11:02:00;101203.81;;;12.20;100.00
54808;BME280;40708;50.364;7.550;2023-02-19T11:04:30;101205.31;;;11.81;100.00
54808;BME280;40708;50.364;7.550;2023-02-19T11:07:09;101209.72;;;11.81;100.00
54808;BME280;40708;50.364;7.550;2023-02-19T11:09:39;101226.53;;;11.74;100.00
54808;BME280;40708;50.364;7.550;2023-02-19T11:12:07;101222.19;;;11.86;100.00
54808;BME280;40708;50.364;7.550;2023-02-19T11:14:33;101234.50;;;11.77;100.00
54808;BME280;40708;50.364;7.550;2023-02-19T11:17:02;101219.44;;;11.77;100.00
54808;BME280;40708;50.364;7.550;2023-02-19T11:19:38;101226.53;;;11.74;100.00
54808;BME280;40708;50.364;7.550;2023-02-19T11:22:37;101236.25;;;11.70;100.00
54808;BME280;40708;50.364;7.550;2023-02-19T11:25:17;101236.97;;;11.59;100.00
54808;BME280;40708;50.364;7.550;2023-02-19T11:28:05;101239.63;;;11.57;100.00
54808;BME280;40708;50.364;7.550;2023-02-19T11:30:43;101245.69;;;11.41;100.00
54808;BME280;40708;50.364;7.550;2023-02-19T11:33:19;101255.22;;;11.19;100.00
54808;BME280;40708;50.364;7.550;2023-02-19T11:35:47;101252.59;;;11.25;100.00
54808;BME280;40708;50.364;7.550;2023-02-19T11:38:16;101247.31;;;11.28;100.00
54808;BME280;40708;50.364;7.550;2023-02-19T11:40:53;101252.75;;;11.41;100.00
54808;BME280;40708;50.364;7.550;2023-02-19T11:44:25;101263.50;;;11.51;100.00
54808;BME280;40708;50.364;7.550;2023-02-19T11:54:45;101266.69;;;11.18;100.00
54808;BME280;40708;50.364;7.550;2023-02-19T11:57:36;101277.25;;;11.12;100.00
54808;BME280;40708;50.364;7.550;2023-02-19T12:00:25;101287.69;;;10.97;100.00
54808;BME280;40708;50.364;7.550;2023-02-19T12:08:22;101302.84;;;10.40;100.00
54808;BME280;40708;50.364;7.550;2023-02-19T12:13:39;101314.16;;;10.28;100.00
54808;BME280;40708;50.364;7.550;2023-02-19T12:16:19;101309.78;;;10.32;100.00
54808;BME280;40708;50.364;7.550;2023-02-19T12:19:06;101308.78;;;10.24;100.00
54808;BME280;40708;50.364;7.550;2023-02-19T12:22:01;101315.75;;;10.17;100.00
54808;BME280;40708;50.364;7.550;2023-02-19T12:27:25;101338.44;;;10.03;100.00
54808;BME280;40708;50.364;7.550;2023-02-19T12:32:41;101352.59;;;10.02;100.00
54808;BME280;40708;50.364;7.550;2023-02-19T12:35:23;101350.84;;;10.02;100.00
54808;BME280;40708;50.364;7.550;2023-02-19T12:38:10;101352.88;;;10.17;100.00
54808;BME280;40708;50.364;7.550;2023-02-19T12:43:19;101349.69;;;10.39;100.00
54808;BME280;40708;50.364;7.550;2023-02-19T12:45:51;101345.28;;;10.41;100.00
54808;BME280;40708;50.364;7.550;2023-02-19T12:48:27;101342.47;;;10.29;100.00
54808;BME280;40708;50.364;7.550;2023-02-19T12:50:57;101345.28;;;10.40;100.00
54808;BME280;40708;50.364;7.550;2023-02-19T12:53:32;101346.34;;;10.52;100.00
54808;BME280;40708;50.364;7.550;2023-02-19T12:56:04;101349.19;;;10.66;100.00
54808;BME280;40708;50.364;7.550;2023-02-19T12:58:42;101337.63;;;10.61;100.00
54808;BME280;40708;50.364;7.550;2023-02-19T13:01:14;101327.22;;;10.74;100.00
54808;BME280;40708;50.364;7.550;2023-02-19T13:03:50;101330.00;;;10.84;100.00
54808;BME280;40708;50.364;7.550;2023-02-19T13:06:29;101323.97;;;10.98;100.00
54808;BME280;40708;50.364;7.550;2023-02-19T13:09:18;101324.16;;;11.12;100.00
54808;BME280;40708;50.364;7.550;2023-02-19T13:11:55;101324.31;;;11.24;100.00
54808;BME280;40708;50.364;7.550;2023-02-19T13:14:39;101326.19;;;11.34;100.00
54808;BME280;40708;50.364;7.550;2023-02-19T13:17:17;101315.78;;;11.54;100.00
54808;BME280;40708;50.364;7.550;2023-02-19T13:19:47;101304.28;;;11.55;100.00
54808;BME280;40708;50.364;7.550;2023-02-19T13:22:23;101300.00;;;11.69;100.00
54808;BME280;40708;50.364;7.550;2023-02-19T13:25:11;101292.06;;;11.70;100.00
54808;BME280;40708;50.364;7.550;2023-02-19T13:27:50;101291.25;;;11.80;100.00
54808;BME280;40708;50.364;7.550;2023-02-19T13:31:27;101297.66;;;12.02;100.00
54808;BME280;40708;50.364;7.550;2023-02-19T13:33:29;101302.09;;;12.03;100.00
54808;BME280;40708;50.364;7.550;2023-02-19T13:36:32;101288.69;;;11.89;100.00
54808;BME280;40708;50.364;7.550;2023-02-19T13:39:03;101281.59;;;11.87;100.00
54808;BME280;40708;50.364;7.550;2023-02-19T13:41:38;101279.81;;;11.89;100.00
54808;BME280;40708;50.364;7.550;2023-02-19T13:44:06;101274.47;;;11.84;100.00
54808;BME280;40708;50.364;7.550;2023-02-19T13:46:42;101279.94;;;12.07;100.00
54808;BME280;40708;50.364;7.550;2023-02-19T13:51:58;101278.94;;;11.91;100.00
54808;BME280;40708;50.364;7.550;2023-02-19T13:59:42;101297.28;;;11.63;100.00
54808;BME280;40708;50.364;7.550;2023-02-19T14:02:23;101312.81;;;11.28;100.00